Time;durP1;ratioP1;P1;durP2;ratioP2;P2;SDS_P1;SDS_P2;PMS_P1;PMS_P2;Temp;Humidity;BMP_temperature;BMP_pressure;BME280_temperature;BME280_humidity;BME280_pressure;Samples;Min_cycle;Max_cycle;Signal;HPM_P1;HPM_P2
2022/10/27 00:01:43;;;;;;;6.90;5.00;;;;;;;15.02;81.40;100271.50;1700969;83;21215;-77
2022/10/27 00:04:50;;;;;;;10.03;5.00;;;;;;;15.01;81.53;100265.68;1734448;82;21200;-78
2022/10/27 00:07:55;;;;;;;10.48;5.78;;;;;;;15.00;81.64;100269.47;1703766;84;21260;-78
2022/10/27 00:11:10;;;;;;;6.47;4.95;;;;;;;15.05;81.54;100270.22;1735601;82;21180;-78
2022/10/27 00:14:18;;;;;;;9.45;5.72;;;;;;;15.09;81.33;100272.89;1703410;83;21171;-78
2022/10/27 00:17:24;;;;;;;9.95;5.92;;;;;;;15.10;81.12;100274.58;1735190;82;21802;-78
2022/10/27 00:20:30;;;;;;;10.28;6.05;;;;;;;15.16;81.06;100279.82;1703721;84;21223;-77
2022/10/27 00:23:37;;;;;;;9.55;5.55;;;;;;;15.16;80.90;100282.05;1734615;82;21187;-78
2022/10/27 00:26:42;;;;;;;10.25;6.12;;;;;;;15.18;80.76;100277.16;1703757;84;21203;-78
2022/10/27 00:29:48;;;;;;;8.40;5.55;;;;;;;14.91;81.87;100284.47;1734528;82;21251;-78
2022/10/27 00:32:54;;;;;;;7.97;5.37;;;;;;;14.90;81.99;100286.06;1703817;84;21200;-77
2022/10/27 00:36:00;;;;;;;10.25;6.78;;;;;;;14.86;82.05;100288.89;1733317;82;21817;-77
2022/10/27 00:39:05;;;;;;;6.75;5.35;;;;;;;14.90;81.99;100293.79;1703726;84;21179;-78
2022/10/27 00:42:12;;;;;;;7.83;5.37;;;;;;;14.86;81.92;100291.13;1733961;82;21232;-77
2022/10/27 00:45:18;;;;;;;8.18;6.03;;;;;;;14.87;81.97;100296.98;1703791;84;21203;-77
2022/10/27 00:48:24;;;;;;;9.60;6.17;;;;;;;14.82;81.94;100290.70;1734595;82;21196;-77
2022/10/27 00:51:30;;;;;;;9.48;6.12;;;;;;;14.92;81.47;100291.70;1703504;84;21215;-78
2022/10/27 00:54:37;;;;;;;7.92;5.53;;;;;;;14.92;81.10;100294.45;1734698;82;21314;-78
2022/10/27 00:57:44;;;;;;;9.30;5.47;;;;;;;14.81;81.19;100302.75;1733215;82;21207;-78
2022/10/27 01:00:50;;;;;;;7.30;5.45;;;;;;;14.70;80.95;100295.08;1734538;82;21207;-78
2022/10/27 01:03:56;;;;;;;6.67;4.70;;;;;;;14.75;80.65;100298.59;1703864;83;21239;-78
2022/10/27 01:07:02;;;;;;;9.90;5.65;;;;;;;14.79;79.94;100302.64;1731824;83;21196;-78
2022/10/27 01:10:08;;;;;;;5.22;4.22;;;;;;;14.79;79.57;100309.53;1700213;84;21275;-78
2022/10/27 01:13:14;;;;;;;9.13;5.78;;;;;;;14.61;79.49;100301.80;1730632;83;21569;-78
2022/10/27 01:16:52;;;;;;;8.78;4.85;;;;;;;14.91;78.33;100305.13;1700976;84;21231;-78
2022/10/27 01:20:36;;;;;;;9.03;5.30;;;;;;;14.91;78.00;100312.00;1731633;83;21192;-78
2022/10/27 01:24:23;;;;;;;7.47;5.40;;;;;;;14.55;79.10;100316.38;1701027;84;21200;-78
2022/10/27 01:28:01;;;;;;;7.42;5.25;;;;;;;14.47;79.13;100313.22;1665110;85;21201;-78
2022/10/27 01:31:21;;;;;;;7.60;5.08;;;;;;;14.50;78.81;100322.49;1698762;81;21243;-78
2022/10/27 01:34:45;;;;;;;;;;;;;;;14.42;78.78;100323.98;1760184;81;21168;-78
2022/10/27 01:38:08;;;;;;;6.28;4.85;;;;;;;14.42;78.94;100317.63;1746012;81;20227;-78
2022/10/27 01:41:24;;;;;;;13.48;5.05;;;;;;;14.33;79.29;100323.28;1757664;81;21750;-78
2022/10/27 01:44:42;;;;;;;6.95;4.75;;;;;;;14.38;78.85;100322.68;1757840;81;21293;-78
2022/10/27 01:47:48;;;;;;;6.10;4.97;;;;;;;14.20;79.18;100330.05;1756108;81;21809;-78
2022/10/27 01:50:54;;;;;;;8.78;4.47;;;;;;;14.12;79.77;100333.50;1736792;81;21802;-78
2022/10/27 01:54:01;;;;;;;9.35;4.47;;;;;;;14.11;79.85;100334.52;1757558;81;21188;-78
2022/10/27 01:57:36;;;;;;;8.35;4.55;;;;;;;14.27;79.42;100336.47;1756235;81;21188;-78
2022/10/27 02:01:00;;;;;;;6.22;4.28;;;;;;;14.20;79.54;100340.20;1757702;81;21195;-78
2022/10/27 02:04:36;;;;;;;5.35;3.95;;;;;;;14.11;79.83;100320.77;1747650;81;21728;-78
2022/10/27 02:08:11;;;;;;;6.20;3.80;;;;;;;14.12;79.95;100350.00;1769171;81;21719;-78
2022/10/27 02:11:18;;;;;;;4.72;4.10;;;;;;;14.09;80.12;100358.11;1769927;81;21861;-78
2022/10/27 02:14:22;;;;;;;6.12;4.15;;;;;;;14.13;79.56;100362.17;1752728;81;21235;-78
2022/10/27 02:17:28;;;;;;;9.15;3.83;;;;;;;14.04;79.81;100364.20;1771942;81;21422;-77
2022/10/27 02:20:36;;;;;;;5.70;3.80;;;;;;;14.21;78.83;100368.03;1772173;81;21203;-77
2022/10/27 02:23:42;;;;;;;5.78;3.87;;;;;;;14.11;79.32;100378.00;1770767;81;21193;-78
2022/10/27 02:26:56;;;;;;;4.33;3.70;;;;;;;14.17;79.19;100377.23;1723492;83;21204;-77
2022/10/27 02:30:02;;;;;;;5.10;3.80;;;;;;;14.13;79.35;100372.33;1769169;81;21209;-77
2022/10/27 02:33:09;;;;;;;7.42;4.67;;;;;;;14.14;79.43;100367.14;1771830;81;21174;-78
2022/10/27 02:36:15;;;;;;;5.72;3.77;;;;;;;14.28;79.26;100375.84;1772360;81;21208;-77
2022/10/27 02:39:22;;;;;;;6.35;4.08;;;;;;;14.31;79.10;100383.70;1772276;81;21160;-78
2022/10/27 02:42:29;;;;;;;5.72;4.60;;;;;;;14.44;78.89;100384.31;1723615;83;21219;-78
2022/10/27 02:45:35;;;;;;;6.83;4.65;;;;;;;14.21;80.00;100386.80;1769307;81;21161;-78
2022/10/27 02:48:41;;;;;;;6.10;4.05;;;;;;;14.17;80.62;100392.89;1723034;83;21251;-78
2022/10/27 02:51:48;;;;;;;8.93;4.78;;;;;;;14.14;80.99;100397.41;1769221;81;21204;-78
2022/10/27 02:54:54;;;;;;;8.98;5.83;;;;;;;14.12;81.11;100396.77;1722337;83;21183;-77
2022/10/27 02:58:01;;;;;;;11.43;5.28;;;;;;;14.24;81.35;100395.16;1767866;81;21164;-77
2022/10/27 03:01:00;;;;;;;8.58;5.17;;;;;;;14.30;81.11;100392.48;1722325;82;21204;-77
2022/10/27 03:04:06;;;;;;;8.60;6.00;;;;;;;14.33;81.21;100394.81;1768102;81;21184;-78
2022/10/27 03:07:11;;;;;;;8.73;5.87;;;;;;;14.36;81.23;100401.84;1706629;82;21940;-77
2022/10/27 03:10:18;;;;;;;8.13;5.87;;;;;;;14.23;81.92;100401.72;1749316;82;21210;-77
2022/10/27 03:13:24;;;;;;;9.40;6.45;;;;;;;14.01;82.83;100398.96;1714607;83;21236;-77
2022/10/27 03:16:30;;;;;;;10.30;6.15;;;;;;;13.90;83.64;100400.88;1732236;83;21252;-78
2022/10/27 03:19:36;;;;;;;10.05;6.20;;;;;;;13.93;84.18;100405.14;1700606;84;21287;-77
2022/10/27 03:22:44;;;;;;;13.08;7.08;;;;;;;13.74;84.86;100401.14;1732243;83;21183;-77
2022/10/27 03:25:50;;;;;;;11.93;6.33;;;;;;;14.00;84.00;100404.67;1701467;84;21774;-78
2022/10/27 03:28:58;;;;;;;15.85;6.53;;;;;;;14.05;83.92;100410.43;1730888;83;21211;-77
2022/10/27 03:32:03;;;;;;;9.08;6.80;;;;;;;14.08;83.72;100411.95;1701485;84;21773;-77
2022/10/27 03:35:11;;;;;;;10.98;6.90;;;;;;;14.33;82.73;100414.08;1730905;83;21235;-78
2022/10/27 03:38:18;;;;;;;9.30;6.12;;;;;;;14.35;82.54;100418.53;1701484;84;21727;-77
2022/10/27 03:41:24;;;;;;;9.35;6.47;;;;;;;14.15;83.20;100421.10;1732221;83;21199;-77
2022/10/27 03:44:31;;;;;;;10.32;7.03;;;;;;;14.32;82.52;100424.77;1700120;84;21398;-78
2022/10/27 03:47:37;;;;;;;14.45;6.80;;;;;;;14.29;82.48;100425.68;1730829;83;21207;-77
2022/10/27 03:50:43;;;;;;;16.70;8.73;;;;;;;14.29;82.41;100424.30;1730705;83;21235;-78
2022/10/27 03:53:49;;;;;;;13.45;7.50;;;;;;;14.21;82.58;100427.18;1732200;83;21203;-77
2022/10/27 03:56:56;;;;;;;12.33;8.23;;;;;;;14.18;82.72;100426.22;1701684;84;21183;-77
2022/10/27 04:00:02;;;;;;;14.10;7.72;;;;;;;14.18;82.93;100430.34;1730887;83;21247;-78
2022/10/27 04:03:08;;;;;;;12.18;8.25;;;;;;;13.97;83.71;100422.92;1700220;83;21255;-77
2022/10/27 04:06:12;;;;;;;15.15;8.80;;;;;;;13.81;84.35;100430.91;1732295;83;21207;-78
2022/10/27 04:09:19;;;;;;;14.40;8.28;;;;;;;13.97;84.25;100433.43;1701237;84;21240;-77
2022/10/27 04:12:25;;;;;;;14.33;8.58;;;;;;;14.08;83.72;100429.30;1732293;83;21207;-77
2022/10/27 04:15:32;;;;;;;12.73;7.75;;;;;;;14.24;83.10;100430.92;1700297;84;21751;-77
2022/10/27 04:18:37;;;;;;;11.28;8.88;;;;;;;14.18;83.09;100423.47;1733056;83;21195;-77
2022/10/27 04:21:42;;;;;;;13.55;10.13;;;;;;;14.30;82.90;100432.38;1701655;84;21505;-77
2022/10/27 04:24:50;;;;;;;15.00;10.43;;;;;;;14.27;82.70;100434.67;1749507;82;21532;-78
2022/10/27 04:27:56;;;;;;;18.67;9.68;;;;;;;14.24;82.74;100440.03;1732242;83;21195;-77
2022/10/27 04:31:04;;;;;;;14.50;10.48;;;;;;;14.20;83.21;100439.23;1732282;83;21176;-77
2022/10/27 04:34:10;;;;;;;13.28;9.60;;;;;;;14.16;83.39;100445.69;1731120;81;21260;-77
2022/10/27 04:37:16;;;;;;;14.75;10.38;;;;;;;14.01;84.21;100440.22;1779409;80;21223;-77
2022/10/27 04:40:21;;;;;;;12.75;10.00;;;;;;;13.99;84.45;100453.85;1729897;83;21239;-78
2022/10/27 04:43:28;;;;;;;15.10;9.98;;;;;;;13.88;84.82;100456.59;1779547;80;21885;-77
2022/10/27 04:46:33;;;;;;;16.40;10.08;;;;;;;13.81;85.27;100457.03;1762426;81;21227;-77
2022/10/27 04:49:39;;;;;;;17.05;10.93;;;;;;;13.83;85.70;100463.70;1781200;80;21176;-78
2022/10/27 04:52:45;;;;;;;15.50;10.68;;;;;;;13.91;85.63;100453.44;1730119;83;21800;-77
2022/10/27 04:55:51;;;;;;;15.98;9.85;;;;;;;14.06;85.32;100460.26;1778269;80;21231;-77
2022/10/27 04:58:58;;;;;;;12.68;9.30;;;;;;;14.02;85.37;100466.70;1758710;81;21809;-77
2022/10/27 05:02:03;;;;;;;13.45;9.65;;;;;;;14.05;85.40;100462.16;1757976;81;21243;-77
2022/10/27 05:05:09;;;;;;;14.68;8.68;;;;;;;14.05;85.31;100473.69;1758035;81;21240;-77
2022/10/27 05:08:16;;;;;;;13.38;8.55;;;;;;;14.14;84.82;100473.05;1760350;79;21222;-77
2022/10/27 05:11:23;;;;;;;15.10;9.08;;;;;;;14.19;84.10;100478.28;1788386;80;21806;-77
2022/10/27 05:14:30;;;;;;;18.37;9.03;;;;;;;14.36;83.29;100483.54;1744811;81;21175;-78
2022/10/27 05:17:36;;;;;;;13.70;8.43;;;;;;;14.22;83.58;100488.91;1756981;81;21180;-78
2022/10/27 05:20:42;;;;;;;15.45;8.78;;;;;;;14.31;83.06;100492.38;1756440;81;21210;-78
2022/10/27 05:23:47;;;;;;;12.85;7.53;;;;;;;14.24;82.84;100500.55;1757089;81;21785;-78
2022/10/27 05:26:53;;;;;;;14.40;8.48;;;;;;;14.51;81.93;100509.96;1755970;80;21251;-78
2022/10/27 05:30:02;;;;;;;11.33;7.58;;;;;;;14.35;82.51;100507.45;1788659;80;21498;-78
2022/10/27 05:33:09;;;;;;;10.05;6.03;;;;;;;14.34;82.74;100509.86;1786816;80;21794;-77
2022/10/27 05:36:14;;;;;;;17.85;7.40;;;;;;;14.40;82.70;100517.88;1781548;80;21187;-78
2022/10/27 05:39:21;;;;;;;10.75;7.03;;;;;;;14.53;82.23;100529.02;1733610;81;21191;-78
2022/10/27 05:42:26;;;;;;;6.83;4.95;;;;;;;14.57;81.78;100525.68;1763948;80;21164;-79
2022/10/27 05:45:25;;;;;;;16.87;5.95;;;;;;;14.70;80.84;100531.84;1788026;80;21227;-78
2022/10/27 05:48:30;;;;;;;8.73;5.53;;;;;;;14.72;80.24;100530.26;1786874;80;21168;-78
2022/10/27 05:51:36;;;;;;;12.05;5.35;;;;;;;14.70;79.64;100541.48;1786822;80;21207;-77
2022/10/27 05:54:41;;;;;;;9.05;5.80;;;;;;;14.71;79.09;100545.93;1779138;80;21259;-78
2022/10/27 05:57:48;;;;;;;10.93;5.50;;;;;;;14.70;78.66;100546.14;1767528;80;21247;-78
2022/10/27 06:00:53;;;;;;;9.45;5.87;;;;;;;14.79;77.98;100543.05;1764952;80;21228;-78
2022/10/27 06:03:59;;;;;;;9.05;4.87;;;;;;;14.84;77.63;100543.83;1763769;80;21623;-78
2022/10/27 06:07:04;;;;;;;12.88;5.37;;;;;;;14.90;77.47;100545.78;1745319;81;21268;-78
2022/10/27 06:10:09;;;;;;;10.03;4.90;;;;;;;14.91;77.43;100555.73;1758072;78;21188;-79
2022/10/27 06:13:18;;;;;;;10.20;5.78;;;;;;;14.99;77.32;100558.36;1771251;79;21157;-77
2022/10/27 06:16:27;;;;;;;10.90;6.05;;;;;;;14.82;77.76;100559.72;1776329;79;21189;-77
2022/10/27 06:19:32;;;;;;;16.70;5.80;;;;;;;14.92;77.71;100564.88;1777516;79;21688;-78
2022/10/27 06:22:38;;;;;;;10.60;5.08;;;;;;;14.98;76.61;100569.59;1773715;79;21353;-77
2022/10/27 06:25:43;;;;;;;10.18;5.10;;;;;;;14.99;76.37;100569.91;1767613;80;21188;-78
2022/10/27 06:28:50;;;;;;;13.00;4.80;;;;;;;15.06;75.44;100574.96;1751695;79;21456;-77
2022/10/27 06:31:55;;;;;;;7.42;4.70;;;;;;;15.11;74.68;100577.12;1760539;81;21157;-78
2022/10/27 06:35:01;;;;;;;11.70;4.87;;;;;;;15.27;74.32;100589.21;1770768;80;21739;-78
2022/10/27 06:38:00;;;;;;;6.33;3.80;;;;;;;15.28;74.37;100587.62;1743422;81;21203;-78
2022/10/27 06:40:53;;;;;;;12.28;4.97;;;;;;;15.48;73.60;100591.92;1737831;82;21183;-78
2022/10/27 06:43:59;;;;;;;9.93;4.17;;;;;;;15.42;73.29;100589.95;1749318;80;21169;-78
2022/10/27 06:47:05;;;;;;;8.70;4.03;;;;;;;15.78;72.04;100590.33;1767363;80;21200;-78
2022/10/27 06:50:12;;;;;;;14.47;3.52;;;;;;;15.80;73.20;100583.53;1758458;81;21232;-79
2022/10/27 06:53:19;;;;;;;5.80;3.87;;;;;;;15.71;71.63;100594.41;1736535;82;21825;-78
2022/10/27 06:56:25;;;;;;;10.23;3.95;;;;;;;15.81;70.48;100594.92;1736509;82;21147;-78
2022/10/27 06:59:32;;;;;;;7.30;3.70;;;;;;;15.69;71.10;100593.77;1753044;80;21191;-79
2022/10/27 07:02:38;;;;;;;6.72;3.70;;;;;;;15.64;70.61;100601.80;1753882;80;21199;-78
2022/10/27 07:05:44;;;;;;;7.37;3.60;;;;;;;15.60;69.66;100598.56;1750553;79;21458;-78
2022/10/27 07:08:51;;;;;;;11.70;4.00;;;;;;;15.59;70.03;100602.38;1792044;79;21704;-78
2022/10/27 07:12:00;;;;;;;8.50;4.00;;;;;;;15.48;69.75;100593.30;1739690;80;21714;-78
2022/10/27 07:15:06;;;;;;;8.65;4.35;;;;;;;15.63;69.41;100598.70;1752658;80;22489;-78
2022/10/27 07:18:14;;;;;;;9.43;3.90;;;;;;;15.88;69.51;100608.73;1756153;81;21229;-77
2022/10/27 07:21:20;;;;;;;6.62;3.72;;;;;;;15.96;68.54;100609.95;1763365;80;22067;-80
2022/10/27 07:24:26;;;;;;;8.33;4.00;;;;;;;15.99;68.72;100605.38;1770716;80;21167;-78
2022/10/27 07:27:32;;;;;;;12.20;4.47;;;;;;;16.05;68.12;100606.50;1770874;80;21228;-78
2022/10/27 07:30:47;;;;;;;9.30;3.70;;;;;;;16.09;68.24;100605.88;1745387;81;21172;-78
2022/10/27 07:33:53;;;;;;;8.18;3.98;;;;;;;16.20;67.98;100622.91;1768183;80;21167;-77
2022/10/27 07:36:59;;;;;;;9.13;4.03;;;;;;;16.25;68.68;100614.86;1769788;80;21711;-78
2022/10/27 07:40:05;;;;;;;10.50;3.80;;;;;;;16.35;67.27;100614.78;1728470;81;21436;-78
2022/10/27 07:43:12;;;;;;;5.45;3.27;;;;;;;16.43;66.77;100627.56;1750036;82;21779;-77
2022/10/27 07:46:19;;;;;;;8.00;3.40;;;;;;;16.50;66.50;100628.95;1746122;81;21234;-78
2022/10/27 07:49:25;;;;;;;7.17;3.42;;;;;;;16.54;65.35;100622.81;1754668;81;21231;-78
2022/10/27 07:52:31;;;;;;;7.90;3.92;;;;;;;16.32;65.37;100645.55;1747072;81;21250;-78
2022/10/27 07:55:40;;;;;;;16.05;3.70;;;;;;;16.29;66.74;100647.89;1750045;81;21934;-78
2022/10/27 07:58:46;;;;;;;6.92;3.35;;;;;;;16.14;66.94;100641.64;1756983;81;21131;-77
2022/10/27 08:01:53;;;;;;;6.85;3.75;;;;;;;16.09;66.67;100642.25;1769036;80;21726;-78
2022/10/27 08:04:58;;;;;;;12.37;3.30;;;;;;;16.04;66.37;100644.28;1765591;80;21160;-78
2022/10/27 08:08:07;;;;;;;8.70;3.02;;;;;;;16.03;65.64;100652.73;1736056;81;21695;-79
2022/10/27 08:11:14;;;;;;;8.60;2.87;;;;;;;15.97;66.14;100656.31;1753043;80;21231;-79
2022/10/27 08:14:20;;;;;;;8.05;3.00;;;;;;;16.05;65.90;100645.97;1765742;79;21196;-77
2022/10/27 08:17:28;;;;;;;5.87;2.62;;;;;;;16.20;66.08;100644.45;1765849;79;21877;-79
2022/10/27 08:20:35;;;;;;;5.67;3.15;;;;;;;16.27;66.47;100656.36;1761266;79;21846;-78
2022/10/27 08:23:40;;;;;;;6.95;2.50;;;;;;;16.24;66.57;100655.94;1766891;79;21283;-77
2022/10/27 08:26:40;;;;;;;3.85;2.45;;;;;;;16.18;65.69;100678.28;1765024;79;21207;-77
2022/10/27 08:29:46;;;;;;;6.17;2.70;;;;;;;16.17;65.43;100653.66;1759031;79;21168;-77
2022/10/27 08:32:52;;;;;;;4.65;2.05;;;;;;;16.07;64.95;100658.17;1756741;79;21941;-78
2022/10/27 08:36:01;;;;;;;5.33;3.02;;;;;;;16.14;66.74;100662.34;1775494;79;21803;-79
2022/10/27 08:39:07;;;;;;;7.25;2.83;;;;;;;16.15;66.00;100670.97;1760912;81;21212;-79
2022/10/27 08:43:00;;;;;;;6.00;2.83;;;;;;;16.07;66.90;100660.41;1768154;79;21216;-78
2022/10/27 08:46:14;;;;;;;7.08;3.00;;;;;;;16.16;65.94;100679.56;1753907;79;21172;-77
2022/10/27 08:49:48;;;;;;;8.50;3.20;;;;;;;16.25;65.13;100682.48;1765636;80;21168;-78
2022/10/27 08:52:53;;;;;;;4.58;2.80;;;;;;;16.11;65.36;100689.83;1722140;83;21192;-78
2022/10/27 08:56:04;;;;;;;7.20;3.58;;;;;;;16.20;65.30;100681.70;1693032;84;21255;-77
2022/10/27 08:59:10;;;;;;;4.22;2.58;;;;;;;16.33;65.34;100672.66;1701045;83;21208;-78
2022/10/27 09:02:43;;;;;;;6.70;3.02;;;;;;;16.32;66.03;100677.30;1752057;81;21181;-78
2022/10/27 09:06:29;;;;;;;6.87;3.45;;;;;;;16.31;64.58;100693.55;1694082;84;21192;-78
2022/10/27 09:09:55;;;;;;;10.78;3.30;;;;;;;16.33;65.52;100693.36;1736721;82;21754;-78
2022/10/27 09:13:24;;;;;;;8.93;3.72;;;;;;;16.48;66.39;100689.92;1779688;79;21210;-78
2022/10/27 09:16:49;;;;;;;7.95;4.05;;;;;;;16.76;64.00;100688.99;1753565;80;21721;-78
2022/10/27 09:20:06;;;;;;;6.83;3.25;;;;;;;16.69;64.44;100690.30;1766583;80;22226;-78
2022/10/27 09:23:19;;;;;;;8.20;3.90;;;;;;;16.76;64.14;100688.99;1755724;81;21203;-78
2022/10/27 09:26:27;;;;;;;8.05;3.87;;;;;;;16.97;63.73;100680.53;1763494;80;21785;-78
2022/10/27 09:29:35;;;;;;;6.97;4.40;;;;;;;17.02;64.00;100690.42;1768554;80;21211;-78
2022/10/27 09:32:37;;;;;;;7.78;4.30;;;;;;;17.07;63.48;100686.50;1779087;80;21167;-78
2022/10/27 09:35:43;;;;;;;8.38;4.08;;;;;;;17.02;64.13;100690.96;1758009;81;21226;-79
2022/10/27 09:38:48;;;;;;;3.95;3.22;;;;;;;17.01;63.82;100695.64;1741684;81;21203;-78
2022/10/27 09:41:55;;;;;;;9.43;3.87;;;;;;;17.10;63.24;100693.54;1789541;80;21175;-78
2022/10/27 09:45:04;;;;;;;6.92;3.80;;;;;;;17.03;62.39;100705.97;1761050;80;21191;-78
2022/10/27 09:48:13;;;;;;;7.78;4.05;;;;;;;17.09;62.84;100700.98;1768696;80;22129;-78
2022/10/27 09:51:37;;;;;;;7.28;3.90;;;;;;;16.88;64.49;100714.09;1762941;80;21239;-77
2022/10/27 09:54:44;;;;;;;13.32;5.22;;;;;;;16.83;66.09;100702.28;1752275;81;21171;-78
2022/10/27 09:57:52;;;;;;;8.15;4.65;;;;;;;16.93;66.44;100709.64;1763528;80;21293;-78
2022/10/27 10:01:07;;;;;;;9.98;5.50;;;;;;;16.92;66.80;100704.33;1749381;81;21939;-78
2022/10/27 10:04:15;;;;;;;12.00;4.87;;;;;;;16.87;67.39;100707.72;1762263;80;21246;-78
2022/10/27 10:07:45;;;;;;;9.58;4.78;;;;;;;16.88;65.86;100701.13;1734148;81;21246;-78
2022/10/27 10:11:13;;;;;;;9.28;4.90;;;;;;;16.90;66.01;100708.70;1744620;80;21228;-78
2022/10/27 10:14:23;;;;;;;6.85;4.50;;;;;;;16.94;66.49;100712.75;1755670;80;21203;-78
2022/10/27 10:17:33;;;;;;;10.30;4.62;;;;;;;17.07;66.31;100700.31;1754105;80;21175;-78
2022/10/27 10:20:43;;;;;;;7.78;4.85;;;;;;;17.07;66.43;100708.61;1763028;80;21276;-78
2022/10/27 10:23:57;;;;;;;10.98;5.25;;;;;;;17.09;66.35;100706.51;1761763;80;21762;-78
2022/10/27 10:27:05;;;;;;;12.55;5.37;;;;;;;17.06;66.59;100695.86;1760368;80;21207;-78
2022/10/27 10:30:14;;;;;;;11.10;5.33;;;;;;;17.03;66.24;100697.68;1752920;81;21254;-78
2022/10/27 10:33:21;;;;;;;8.23;4.55;;;;;;;17.08;65.97;100694.30;1767594;80;21635;-78
2022/10/27 10:36:34;;;;;;;10.25;4.50;;;;;;;17.11;65.48;100694.70;1779252;80;21478;-78
2022/10/27 10:39:43;;;;;;;12.43;4.85;;;;;;;16.98;65.51;100694.66;1763234;81;21241;-78
2022/10/27 10:42:54;;;;;;;5.30;4.30;;;;;;;17.09;65.82;100692.69;1752906;81;21171;-78
2022/10/27 10:45:59;;;;;;;;;;;;;;;17.21;64.87;100687.38;1723052;81;21194;-79
2022/10/27 10:49:06;;;;;;;10.55;5.05;;;;;;;17.19;64.44;100699.19;1765821;80;20215;-78
2022/10/27 10:52:24;;;;;;;10.15;4.45;;;;;;;17.34;64.44;100694.84;1766807;80;21234;-78
2022/10/27 10:55:36;;;;;;;7.12;4.62;;;;;;;17.43;64.01;100700.48;1756483;81;21177;-79
2022/10/27 10:58:42;;;;;;;11.63;4.85;;;;;;;17.23;64.05;100704.63;1761855;81;21205;-79
2022/10/27 11:01:51;;;;;;;9.05;4.80;;;;;;;17.36;64.19;100694.09;1769504;80;21235;-78
2022/10/27 11:04:57;;;;;;;13.03;4.97;;;;;;;17.34;64.82;100703.14;1792947;80;21173;-79
2022/10/27 11:08:03;;;;;;;8.68;4.10;;;;;;;17.34;63.56;100699.84;1792686;80;21184;-78
2022/10/27 11:11:10;;;;;;;8.53;4.90;;;;;;;17.23;64.65;100699.62;1777013;80;21218;-77
2022/10/27 11:14:21;;;;;;;14.95;5.67;;;;;;;17.20;64.35;100704.18;1763975;81;21625;-78
2022/10/27 11:17:27;;;;;;;;;;;;;;;16.96;64.22;100710.61;1770324;80;21192;-77
2022/10/27 11:20:39;;;;;;;13.85;6.47;;;;;;;16.82;65.10;100706.11;1787324;80;20284;-77
2022/10/27 11:23:53;;;;;;;16.05;5.92;;;;;;;16.94;65.21;100711.37;1782247;80;22404;-78
2022/10/27 11:27:20;;;;;;;10.20;5.30;;;;;;;17.15;65.08;100708.11;1763875;80;21227;-78
2022/10/27 11:30:29;;;;;;;12.05;5.45;;;;;;;17.11;66.65;100711.81;1761241;80;21211;-79
2022/10/27 11:33:45;;;;;;;8.98;4.97;;;;;;;17.09;66.73;100694.07;1764828;80;21191;-78
2022/10/27 11:37:04;;;;;;;9.23;4.67;;;;;;;17.19;65.71;100706.09;1785593;80;21187;-78
2022/10/27 11:40:23;;;;;;;10.03;4.90;;;;;;;17.12;64.19;100707.98;1793019;80;21418;-78
2022/10/27 11:43:51;;;;;;;15.70;5.65;;;;;;;17.05;64.38;100717.66;1764520;80;21947;-79
2022/10/27 11:47:26;;;;;;;9.95;4.90;;;;;;;16.97;64.38;100715.61;1750574;80;21215;-78
2022/10/27 11:50:44;;;;;;;14.55;5.78;;;;;;;17.10;64.67;100722.02;1745166;80;21813;-78
2022/10/27 11:53:52;;;;;;;12.53;5.53;;;;;;;17.11;65.32;100715.42;1760593;80;21211;-77
2022/10/27 11:57:03;;;;;;;8.60;5.33;;;;;;;17.13;65.57;100716.62;1764291;80;21724;-78
2022/10/27 12:00:21;;;;;;;7.42;4.97;;;;;;;17.04;65.28;100725.63;1754021;81;21275;-77
2022/10/27 12:03:55;;;;;;;11.30;6.28;;;;;;;16.87;65.18;100747.78;1760616;80;21792;-78
2022/10/27 12:07:21;;;;;;;12.13;5.78;;;;;;;16.87;65.88;100727.05;1779791;80;21626;-78
2022/10/27 12:10:35;;;;;;;14.63;5.37;;;;;;;16.80;66.32;100739.48;1743844;80;21191;-78
2022/10/27 12:13:52;;;;;;;12.35;5.58;;;;;;;16.92;66.13;100728.66;1732855;82;21227;-78
2022/10/27 12:17:28;;;;;;;11.45;5.50;;;;;;;16.76;66.33;100746.47;1753037;80;21506;-79
2022/10/27 12:20:45;;;;;;;10.80;5.47;;;;;;;16.71;66.71;100746.20;1691563;82;21577;-79
2022/10/27 12:24:08;;;;;;;13.35;5.00;;;;;;;16.64;67.11;100741.70;1764212;80;21484;-78
2022/10/27 12:27:21;;;;;;;12.13;5.20;;;;;;;16.80;66.84;100753.83;1758973;80;22452;-79
2022/10/27 12:30:30;;;;;;;9.93;5.08;;;;;;;16.85;66.75;100755.44;1760470;80;21187;-78
2022/10/27 12:33:53;;;;;;;9.33;5.12;;;;;;;16.78;66.82;100760.06;1763988;80;21349;-81
2022/10/27 12:37:10;;;;;;;11.12;5.40;;;;;;;16.80;67.05;100748.30;1761068;80;21211;-80
2022/10/27 12:40:26;;;;;;;8.20;5.00;;;;;;;16.86;66.76;100761.27;1769665;80;21176;-79
2022/10/27 12:43:58;;;;;;;8.28;5.03;;;;;;;16.99;66.88;100759.95;1744670;81;21286;-80
2022/10/27 12:47:10;;;;;;;10.60;5.42;;;;;;;17.04;66.37;100762.94;1733378;82;21251;-78
2022/10/27 12:50:33;;;;;;;9.08;5.40;;;;;;;16.79;67.42;100765.38;1736685;81;21215;-80
2022/10/27 12:54:02;;;;;;;9.20;5.33;;;;;;;16.90;66.52;100772.24;1762490;81;21944;-81
2022/10/27 12:57:42;;;;;;;13.13;5.70;;;;;;;16.86;66.07;100770.41;1755872;80;21179;-78
2022/10/27 13:01:04;;;;;;;10.03;5.70;;;;;;;16.92;66.46;100771.49;1732360;81;22178;-78
2022/10/27 13:04:37;;;;;;;10.48;6.22;;;;;;;16.83;66.46;100787.39;1768690;80;21197;-78
2022/10/27 13:08:10;;;;;;;15.80;6.55;;;;;;;16.71;66.82;100782.11;1762775;80;22367;-78
2022/10/27 13:11:55;;;;;;;10.88;6.53;;;;;;;16.60;67.25;100784.05;1733254;82;21629;-78
2022/10/27 13:15:12;;;;;;;10.72;6.37;;;;;;;16.63;67.79;100783.66;1734003;82;21754;-78
2022/10/27 13:18:57;;;;;;;19.48;7.05;;;;;;;16.56;68.23;100790.54;1732491;81;21215;-78
2022/10/27 13:22:21;;;;;;;12.50;7.22;;;;;;;16.59;68.37;100788.73;1733574;82;21259;-78
2022/10/27 13:25:48;;;;;;;16.75;8.73;;;;;;;16.64;68.23;100788.65;1733776;82;21222;-80
2022/10/27 13:29:07;;;;;;;15.23;7.65;;;;;;;16.60;68.73;100792.34;1744210;80;21223;-79
2022/10/27 13:32:31;;;;;;;15.08;7.80;;;;;;;16.46;68.80;100794.17;1747314;80;21223;-78
2022/10/27 13:35:42;;;;;;;9.73;7.33;;;;;;;16.39;69.41;100797.44;1735205;82;21231;-79
2022/10/27 13:38:47;;;;;;;12.80;6.53;;;;;;;16.40;69.63;100796.37;1735410;82;21226;-79
2022/10/27 13:42:12;;;;;;;10.75;7.08;;;;;;;16.37;69.27;100794.00;1734879;82;21880;-78
2022/10/27 13:45:45;;;;;;;15.00;7.37;;;;;;;16.34;68.96;100802.19;1733296;82;21239;-78
2022/10/27 13:48:54;;;;;;;8.23;5.62;;;;;;;16.25;69.19;100805.30;1734752;82;21845;-77
2022/10/27 13:52:14;;;;;;;11.75;7.33;;;;;;;16.27;69.34;100812.31;1734547;82;21287;-77
2022/10/27 13:55:39;;;;;;;11.33;7.12;;;;;;;16.13;69.88;100815.17;1734260;82;21199;-78
2022/10/27 13:59:05;;;;;;;13.30;7.10;;;;;;;16.01;70.22;100805.23;1734582;82;21281;-78
2022/10/27 14:02:13;;;;;;;12.47;7.30;;;;;;;16.08;70.31;100815.25;1734909;82;21195;-78
2022/10/27 14:05:41;;;;;;;12.20;8.35;;;;;;;16.08;70.01;100811.64;1735427;82;21191;-78
2022/10/27 14:08:58;;;;;;;10.63;7.17;;;;;;;16.05;69.99;100812.91;1708651;82;21250;-77
2022/10/27 14:12:11;;;;;;;11.45;8.00;;;;;;;16.03;70.05;100820.52;1733920;82;21219;-78
2022/10/27 14:15:37;;;;;;;14.35;7.62;;;;;;;15.94;70.29;100823.09;1734347;82;21227;-77
2022/10/27 14:18:45;;;;;;;14.93;8.40;;;;;;;15.85;70.41;100824.28;1734154;81;21250;-77
2022/10/27 14:21:57;;;;;;;12.07;7.10;;;;;;;15.64;71.13;100822.92;1734642;82;21187;-77
2022/10/27 14:25:25;;;;;;;9.55;6.65;;;;;;;15.63;71.19;100827.56;1734673;82;21258;-77
2022/10/27 14:28:31;;;;;;;10.98;6.20;;;;;;;15.64;71.06;100827.91;1734957;82;21191;-78
2022/10/27 14:31:30;;;;;;;15.63;6.65;;;;;;;15.72;70.73;100830.55;1735364;82;21178;-78
2022/10/27 14:34:32;;;;;;;9.28;5.97;;;;;;;15.60;71.07;100838.44;1734942;82;21202;-78
2022/10/27 14:37:22;;;;;;;8.23;6.60;;;;;;;15.75;70.64;100833.41;1735458;82;22291;-77
2022/10/27 14:40:20;;;;;;;8.50;6.53;;;;;;;15.76;70.71;100836.50;1735434;82;21191;-77
2022/10/27 14:43:30;;;;;;;8.98;7.10;;;;;;;15.75;70.74;100841.69;1734620;82;21210;-77
2022/10/27 14:46:38;;;;;;;9.88;6.05;;;;;;;15.65;70.94;100846.69;1735531;82;21187;-77